Time;durP1;ratioP1;P1;durP2;ratioP2;P2;SDS_P1;SDS_P2;PMS_P1;PMS_P2;Temp;Humidity;BMP_temperature;BMP_pressure;BME280_temperature;BME280_humidity;BME280_pressure;Samples;Min_cycle;Max_cycle;Signal;HPM_P1;HPM_P2
2023/10/10 00:02:18;;;;;;;11.20;4.10;;;;;;;-144.30;57.26;85567.41;5092623;28;20202;-55
2023/10/10 00:04:45;;;;;;;5.20;3.57;;;;;;;-144.30;57.28;85521.69;5092498;28;20254;-56
2023/10/10 00:07:14;;;;;;;6.40;4.23;;;;;;;-144.30;57.74;85547.53;5092556;28;20199;-56
2023/10/10 00:09:44;;;;;;;7.77;4.27;;;;;;;-144.30;58.71;85599.22;5092293;28;20256;-56
2023/10/10 00:12:17;;;;;;;10.43;4.10;;;;;;;-144.30;58.62;85547.53;5092269;28;20200;-57
2023/10/10 00:14:50;;;;;;;8.47;4.80;;;;;;;-144.30;58.65;85563.41;5092660;28;20192;-59
2023/10/10 00:17:20;;;;;;;5.73;4.07;;;;;;;-144.30;58.50;85551.50;5092431;28;20241;-60
2023/10/10 00:19:54;;;;;;;7.93;4.37;;;;;;;-144.30;58.20;85603.19;5092429;28;20199;-59
2023/10/10 00:22:30;;;;;;;8.93;4.00;;;;;;;-144.30;58.47;85591.25;5092624;28;20580;-59
2023/10/10 00:24:57;;;;;;;13.10;4.20;;;;;;;-144.30;58.49;85565.41;5092194;28;20268;-60
2023/10/10 00:27:24;;;;;;;6.37;4.10;;;;;;;-144.30;58.55;85561.44;5092618;28;20278;-60
2023/10/10 00:29:52;;;;;;;12.07;4.83;;;;;;;-144.30;58.42;85573.38;5092314;28;20199;-59
2023/10/10 00:32:22;;;;;;;8.83;4.30;;;;;;;-144.30;58.37;85551.50;5091902;28;20250;-56
2023/10/10 00:34:50;;;;;;;9.50;3.67;;;;;;;-144.30;58.47;85571.38;5091888;28;20187;-57
2023/10/10 00:37:21;;;;;;;14.50;4.53;;;;;;;-144.30;58.20;85547.53;5092351;28;20595;-56
2023/10/10 00:39:52;;;;;;;10.10;4.57;;;;;;;-144.30;57.79;85545.53;5091799;28;20206;-56
2023/10/10 00:42:21;;;;;;;10.23;4.20;;;;;;;-144.30;57.60;85559.44;5091667;28;20246;-56
2023/10/10 00:44:49;;;;;;;9.47;4.67;;;;;;;-144.30;57.38;85471.97;5091535;28;20259;-56
2023/10/10 00:47:17;;;;;;;15.07;4.50;;;;;;;-144.30;57.32;85414.31;5091640;28;20628;-56
2023/10/10 00:49:47;;;;;;;12.23;4.90;;;;;;;-144.30;57.31;85533.59;5091701;28;20195;-56
2023/10/10 00:52:17;;;;;;;11.40;4.93;;;;;;;-144.30;56.85;85537.59;5091841;28;20593;-57
2023/10/10 00:54:45;;;;;;;10.57;4.83;;;;;;;-144.30;56.94;85464.03;5091524;28;20237;-56
2023/10/10 00:57:16;;;;;;;7.10;5.00;;;;;;;-144.30;56.18;85487.88;5091507;28;20199;-56
2023/10/10 00:59:46;;;;;;;6.00;4.30;;;;;;;-144.30;56.49;85559.44;5090418;28;20199;-57
2023/10/10 01:02:14;;;;;;;14.23;4.97;;;;;;;-144.30;56.36;85519.69;5091711;28;20195;-57
2023/10/10 01:04:55;;;;;;;9.90;4.73;;;;;;;-144.30;56.00;85519.69;5091688;28;20219;-56
2023/10/10 01:07:25;;;;;;;8.40;5.47;;;;;;;-144.30;55.90;85551.50;5091381;28;20203;-56
2023/10/10 01:09:56;;;;;;;10.20;4.80;;;;;;;-144.30;55.48;85499.81;5091463;28;20195;-59
2023/10/10 01:12:24;;;;;;;10.63;4.90;;;;;;;-144.30;55.04;85509.75;5091344;28;20236;-60
2023/10/10 01:14:54;;;;;;;7.83;4.87;;;;;;;-144.30;55.18;85489.88;5091398;28;20198;-60
2023/10/10 01:17:28;;;;;;;6.03;4.37;;;;;;;-144.30;55.56;85450.09;5091267;28;20195;-59
2023/10/10 01:19:58;;;;;;;8.83;4.97;;;;;;;-144.30;55.66;85523.66;5091374;28;20195;-59
2023/10/10 01:22:38;;;;;;;6.07;4.57;;;;;;;-144.30;55.43;85515.72;5091269;28;20258;-60
2023/10/10 01:25:28;;;;;;;8.37;4.90;;;;;;;-144.30;55.62;85529.63;5091359;28;20791;-59
2023/10/10 01:27:57;;;;;;;7.40;4.60;;;;;;;-144.30;55.87;85507.75;5090907;28;20637;-59
2023/10/10 01:33:05;;;;;;;10.33;4.23;;;;;;;-144.30;55.53;85507.75;5090466;28;20195;-59
2023/10/10 01:35:34;;;;;;;9.37;4.57;;;;;;;-144.30;55.47;85489.88;5091205;28;20568;-59
2023/10/10 01:38:03;;;;;;;5.73;3.63;;;;;;;-144.30;54.93;85515.72;5091126;28;20582;-59
2023/10/10 01:40:37;;;;;;;9.73;4.57;;;;;;;-144.30;54.68;85547.53;5090848;28;20198;-59
2023/10/10 01:43:10;;;;;;;5.27;3.47;;;;;;;-144.30;54.72;85559.44;5090724;28;20199;-59
2023/10/10 01:45:41;;;;;;;5.60;3.90;;;;;;;-144.30;54.78;85460.03;5090453;28;20310;-60
2023/10/10 01:48:11;;;;;;;5.70;4.20;;;;;;;-144.30;55.14;85527.63;5090695;28;20290;-59
2023/10/10 01:50:38;;;;;;;4.57;3.60;;;;;;;-144.30;55.07;85505.78;5090809;28;20199;-59
2023/10/10 01:53:09;;;;;;;6.43;3.97;;;;;;;-144.30;55.44;85444.16;5090940;28;20784;-59
2023/10/10 01:55:37;;;;;;;6.50;4.07;;;;;;;-144.30;55.22;85577.34;5090595;28;20210;-57
2023/10/10 01:58:10;;;;;;;9.97;4.73;;;;;;;-144.30;55.46;85555.47;5090394;28;20697;-56
2023/10/10 02:00:37;;;;;;;5.10;3.77;;;;;;;-144.30;55.60;85527.63;5090796;28;20199;-56
2023/10/10 02:03:06;;;;;;;6.83;4.03;;;;;;;-144.30;56.01;85579.31;5090587;28;20197;-56
2023/10/10 02:05:42;;;;;;;7.63;3.87;;;;;;;-144.30;55.71;85525.66;5090770;28;20587;-56
2023/10/10 02:08:11;;;;;;;11.57;4.40;;;;;;;-144.30;57.48;85543.53;5090773;28;20647;-57
2023/10/10 02:10:43;;;;;;;8.97;4.80;;;;;;;-144.30;58.59;85539.56;5090027;28;20693;-56
2023/10/10 02:13:11;;;;;;;9.60;4.87;;;;;;;-144.30;58.98;85547.53;5090754;28;20673;-57
2023/10/10 02:15:39;;;;;;;11.97;5.03;;;;;;;-144.30;59.41;85549.50;5091001;28;20689;-56
2023/10/10 02:18:12;;;;;;;11.13;6.10;;;;;;;-144.30;59.02;85420.28;5090667;28;20231;-57
2023/10/10 02:20:54;;;;;;;14.00;7.87;;;;;;;-144.30;59.10;85599.22;5090932;28;20227;-56
2023/10/10 02:23:31;;;;;;;15.43;7.57;;;;;;;-144.30;59.33;85553.47;5090838;28;20229;-57
2023/10/10 02:26:02;;;;;;;13.37;7.40;;;;;;;-144.30;60.50;85625.06;5090679;28;20222;-57
2023/10/10 02:28:43;;;;;;;13.60;6.50;;;;;;;-144.30;60.28;85611.13;5090867;28;20202;-56
2023/10/10 02:31:13;;;;;;;16.57;6.77;;;;;;;-144.30;60.44;85623.06;5090477;28;20207;-58
2023/10/10 02:33:48;;;;;;;15.13;6.90;;;;;;;-144.30;60.61;85559.44;5089836;28;20192;-59
2023/10/10 02:36:16;;;;;;;17.20;7.97;;;;;;;-144.30;59.97;85599.22;5090316;28;20195;-59
2023/10/10 02:38:55;;;;;;;17.67;8.67;;;;;;;-144.30;59.66;85642.94;5090138;28;20252;-59
2023/10/10 02:41:38;;;;;;;20.30;10.03;;;;;;;-144.30;60.60;85636.97;5090594;28;20318;-59
2023/10/10 02:44:09;;;;;;;35.97;10.53;;;;;;;-144.30;61.09;85611.13;5090035;28;20191;-59
2023/10/10 02:46:38;;;;;;;19.03;10.27;;;;;;;-144.30;60.77;86326.91;5090420;28;20288;-57
2023/10/10 02:49:22;;;;;;;23.30;10.90;;;;;;;-144.30;60.71;85704.56;5090651;28;20260;-57
2023/10/10 02:51:51;;;;;;;15.83;9.03;;;;;;;-144.30;61.08;85629.03;5090581;28;20191;-56
2023/10/10 02:54:33;;;;;;;25.10;8.63;;;;;;;-144.30;60.95;85593.25;5090025;28;20253;-56
2023/10/10 02:57:26;;;;;;;18.70;9.30;;;;;;;-144.30;61.14;85625.06;5089874;28;20206;-56
2023/10/10 02:59:59;;;;;;;24.70;10.60;;;;;;;-144.30;60.80;85660.84;5089851;28;20261;-57
2023/10/10 03:02:40;;;;;;;18.83;10.77;;;;;;;-144.30;61.28;85710.53;5089809;28;20199;-56
2023/10/10 03:05:14;;;;;;;20.40;12.43;;;;;;;-144.30;60.79;85666.81;5090029;28;20718;-56
2023/10/10 03:07:42;;;;;;;23.73;12.83;;;;;;;-144.30;60.69;85650.91;5089988;28;20206;-56
2023/10/10 03:10:23;;;;;;;27.87;13.50;;;;;;;-144.30;60.59;85674.75;5089857;28;20196;-56
2023/10/10 03:12:51;;;;;;;22.87;12.93;;;;;;;-144.30;60.82;85684.69;5089931;28;20409;-57
2023/10/10 03:15:29;;;;;;;26.00;11.43;;;;;;;-144.30;60.89;85710.53;5089672;28;20253;-56
2023/10/10 03:18:18;;;;;;;26.50;12.17;;;;;;;-144.30;61.17;85682.72;5089502;28;20321;-56
2023/10/10 03:21:06;;;;;;;27.27;11.60;;;;;;;-144.30;61.66;85698.63;5090067;28;20191;-56
2023/10/10 03:23:41;;;;;;;18.37;10.50;;;;;;;-144.30;62.00;85658.84;5093852;28;20230;-56
2023/10/10 03:26:18;;;;;;;18.50;10.77;;;;;;;-144.30;61.89;85716.50;5093750;28;20276;-55
2023/10/10 03:28:47;;;;;;;16.23;8.77;;;;;;;-144.30;62.33;85710.53;5094165;28;20203;-57
2023/10/10 03:31:24;;;;;;;13.77;8.40;;;;;;;-144.30;62.29;85694.63;5093737;28;20199;-56
2023/10/10 03:34:10;;;;;;;17.57;9.20;;;;;;;-144.30;61.71;85702.59;5093406;28;20202;-56
2023/10/10 03:36:43;;;;;;;15.67;8.10;;;;;;;-144.30;61.65;85726.44;5092814;28;20191;-58
2023/10/10 03:39:26;;;;;;;12.57;7.57;;;;;;;-144.30;61.59;85726.44;5093322;28;20195;-60
2023/10/10 05:23:42;;;;;;;17.37;6.83;;;;;;;-144.30;56.92;85535.59;5091077;28;20240;-55
2023/10/10 05:26:14;;;;;;;15.57;7.10;;;;;;;-144.30;56.42;85547.53;5090472;28;20238;-56
2023/10/10 05:28:45;;;;;;;18.67;6.40;;;;;;;-144.30;56.75;85539.56;5090702;28;20199;-59
2023/10/10 05:31:17;;;;;;;15.10;6.23;;;;;;;-144.30;56.60;85541.56;5091049;28;20207;-58
2023/10/10 05:33:45;;;;;;;8.10;6.63;;;;;;;-144.30;56.30;85547.53;5090833;28;20635;-54
2023/10/10 05:36:18;;;;;;;20.23;10.70;;;;;;;-144.30;56.12;85565.41;5090137;28;20199;-55
2023/10/10 05:38:46;;;;;;;14.73;6.30;;;;;;;-144.30;55.98;85527.63;5090898;28;20252;-56
2023/10/10 05:41:13;;;;;;;11.40;7.50;;;;;;;-144.30;55.92;85491.84;5088176;28;20253;-55
2023/10/10 05:43:39;;;;;;;12.50;6.37;;;;;;;-144.30;55.49;85503.78;5090877;28;20671;-55
2023/10/10 05:46:08;;;;;;;12.07;6.17;;;;;;;-144.30;54.96;85509.75;5090122;28;20625;-56
2023/10/10 05:48:35;;;;;;;16.27;7.20;;;;;;;-144.30;54.14;85489.88;5090699;28;20197;-55
2023/10/10 05:51:04;;;;;;;10.77;7.23;;;;;;;-144.30;53.23;85493.84;5090464;28;20205;-55
2023/10/10 05:53:33;;;;;;;19.77;9.07;;;;;;;-144.30;53.55;85466.00;5090555;28;20199;-56
2023/10/10 05:56:12;;;;;;;14.90;8.13;;;;;;;-144.30;53.97;85426.25;5090277;28;20205;-58
2023/10/10 05:58:42;;;;;;;17.17;7.30;;;;;;;-144.30;54.10;85396.44;5090602;28;20199;-59
2023/10/10 06:01:12;;;;;;;17.10;7.70;;;;;;;-144.30;53.61;85372.56;5090395;28;20194;-59
2023/10/10 06:03:40;;;;;;;17.87;8.57;;;;;;;-144.30;52.66;85289.09;5090404;28;20693;-59
2023/10/10 06:06:08;;;;;;;12.40;7.13;;;;;;;-144.30;51.84;85348.72;5089977;28;20714;-59
2023/10/10 06:08:37;;;;;;;17.60;8.93;;;;;;;-144.30;51.68;85301.00;5090483;28;20610;-59
2023/10/10 06:11:06;;;;;;;22.33;10.37;;;;;;;-144.30;51.38;85348.72;5090346;28;20190;-59
2023/10/10 06:13:38;;;;;;;25.67;9.10;;;;;;;-144.30;51.53;85348.72;5090124;28;20195;-59
2023/10/10 06:16:09;;;;;;;43.57;10.13;;;;;;;-144.30;51.45;85279.16;5090018;28;20738;-60
2023/10/10 06:18:36;;;;;;;27.07;9.13;;;;;;;-144.30;51.23;85301.00;5089547;28;20791;-56
2023/10/10 06:21:07;;;;;;;28.13;10.13;;;;;;;-144.30;50.38;85293.06;5090116;28;20221;-59
2023/10/10 06:23:36;;;;;;;25.63;8.57;;;;;;;-144.30;50.24;85229.44;5090209;28;20191;-58
2023/10/10 06:26:03;;;;;;;23.60;9.13;;;;;;;-144.30;49.58;85205.59;5089822;28;20223;-59
2023/10/10 06:28:35;;;;;;;23.57;10.10;;;;;;;-144.30;50.12;85241.38;5090047;28;20232;-59
2023/10/10 06:31:09;;;;;;;34.53;9.93;;;;;;;-144.30;50.18;85213.53;5089603;28;20195;-58
2023/10/10 06:33:40;;;;;;;25.23;9.23;;;;;;;-144.30;50.37;85221.50;5090148;28;20324;-58
2023/10/10 06:36:32;;;;;;;24.40;9.70;;;;;;;-144.30;50.90;85237.41;5089890;28;20244;-59
2023/10/10 06:39:18;;;;;;;23.97;10.03;;;;;;;-144.30;51.23;85229.44;5089988;28;20327;-60
2023/10/10 06:41:54;;;;;;;32.20;11.13;;;;;;;-144.30;51.25;85217.53;5089663;28;20240;-59
2023/10/10 06:44:35;;;;;;;31.97;10.37;;;;;;;-144.30;50.60;85267.22;5089682;28;20294;-59
2023/10/10 06:47:08;;;;;;;41.43;10.17;;;;;;;-144.30;50.90;85308.97;5089771;28;20219;-59
2023/10/10 06:49:44;;;;;;;21.83;9.03;;;;;;;-144.30;51.15;85310.94;5089716;28;20294;-55
2023/10/10 06:52:18;;;;;;;22.60;8.63;;;;;;;-144.30;52.21;85338.78;5089589;28;20199;-56
2023/10/10 06:54:53;;;;;;;26.60;10.43;;;;;;;-144.30;52.43;85380.53;5089650;28;20192;-55
2023/10/10 06:57:21;;;;;;;23.23;8.97;;;;;;;-144.30;52.66;85368.59;5093162;28;20198;-55
2023/10/10 06:59:48;;;;;;;29.83;9.97;;;;;;;-144.30;52.61;85360.66;5093764;28;20204;-56
2023/10/10 07:02:20;;;;;;;27.63;8.50;;;;;;;-144.30;52.56;85328.84;5093706;28;20199;-55
2023/10/10 07:04:52;;;;;;;45.10;11.40;;;;;;;-144.30;52.63;85318.91;5093892;28;20199;-56
2023/10/10 07:07:20;;;;;;;26.73;9.40;;;;;;;-144.30;52.84;85332.81;5093323;28;20215;-56
2023/10/10 07:09:57;;;;;;;25.53;9.57;;;;;;;-144.30;53.64;86092.28;5093694;28;20637;-55
2023/10/10 07:12:28;;;;;;;46.47;16.80;;;;;;;-144.30;53.86;85368.59;5093417;28;20213;-55
2023/10/10 07:14:56;;;;;;;27.53;10.20;;;;;;;-144.30;53.96;85378.53;5093282;28;20199;-55
2023/10/10 07:17:27;;;;;;;28.07;7.77;;;;;;;-144.30;53.90;85348.72;5093276;28;20221;-56
2023/10/10 07:22:37;;;;;;;29.47;9.73;;;;;;;-144.30;54.30;85352.69;5093183;28;20198;-55
2023/10/10 07:25:18;;;;;;;32.80;9.23;;;;;;;-144.30;54.71;85366.63;5093760;28;20647;-54
2023/10/10 07:27:45;;;;;;;23.97;11.93;;;;;;;-144.30;54.10;85303.00;5093247;28;20225;-59
2023/10/10 07:30:16;;;;;;;23.70;9.03;;;;;;;-144.30;53.38;85277.16;5093321;28;20637;-58
2023/10/10 07:32:43;;;;;;;32.67;13.23;;;;;;;-144.30;53.34;85301.00;5093297;28;20670;-60
2023/10/10 07:35:14;;;;;;;36.63;13.43;;;;;;;-144.30;52.93;85293.06;5093122;28;20217;-58
2023/10/10 07:37:43;;;;;;;24.43;9.23;;;;;;;-144.30;52.46;85243.38;5092957;28;20199;-55
2023/10/10 07:40:28;;;;;;;27.10;8.83;;;;;;;-144.30;51.46;85209.56;5092802;28;20199;-55
2023/10/10 07:42:59;;;;;;;30.10;7.80;;;;;;;-144.30;50.94;85225.47;5093215;28;20195;-58
2023/10/10 07:45:29;;;;;;;22.53;8.53;;;;;;;-144.30;50.02;85193.66;5092618;28;20195;-59
2023/10/10 07:51:05;;;;;;;33.33;9.03;;;;;;;-144.30;48.30;85072.41;5092898;28;20206;-59
2023/10/10 07:53:42;;;;;;;30.13;12.27;;;;;;;-144.30;47.81;85022.72;5092848;28;20235;-58
2023/10/10 07:56:10;;;;;;;28.97;11.80;;;;;;;-144.30;47.76;84977.00;5092631;28;20666;-58
2023/10/10 07:58:44;;;;;;;26.75;8.45;;;;;;;-144.30;47.43;84941.22;5092621;28;20203;-59
2023/10/10 08:01:16;;;;;;;31.20;9.85;;;;;;;-144.30;46.56;84891.53;5092848;28;20286;-59
2023/10/10 08:03:45;;;;;;;29.70;9.23;;;;;;;-144.30;46.12;84990.91;5092811;28;20749;-58
2023/10/10 08:06:12;;;;;;;35.33;11.02;;;;;;;-144.30;45.26;84814.00;5092252;28;20227;-59
2023/10/10 08:08:40;;;;;;;47.15;11.40;;;;;;;-144.30;45.05;84784.19;5091812;28;20196;-59
2023/10/10 08:11:12;;;;;;;38.20;10.43;;;;;;;-144.30;44.43;84720.59;5092493;28;20596;-59
2023/10/10 08:13:48;;;;;;;34.33;9.63;;;;;;;-144.30;43.92;84716.63;5092562;28;20272;-56
2023/10/10 08:16:20;;;;;;;18.42;8.93;;;;;;;-144.30;43.40;84651.03;5092139;28;20191;-56
2023/10/10 08:19:04;;;;;;;22.60;8.65;;;;;;;-144.30;43.63;84674.88;5091910;28;20243;-55
2023/10/10 08:21:36;;;;;;;34.92;8.35;;;;;;;-144.30;43.68;84649.03;5092020;28;20199;-55
2023/10/10 08:24:04;;;;;;;21.60;8.00;;;;;;;-144.30;43.26;84623.22;5092075;28;20206;-57
2023/10/10 08:26:38;;;;;;;22.85;7.82;;;;;;;-144.30;42.80;84645.06;5091963;28;20277;-56
2023/10/10 08:29:08;;;;;;;18.73;8.32;;;;;;;-144.30;42.84;84619.22;5092236;28;20202;-54
2023/10/10 08:31:37;;;;;;;29.30;7.60;;;;;;;-144.30;42.83;84625.19;5091908;28;20195;-55
2023/10/10 08:34:04;;;;;;;19.50;7.50;;;;;;;-144.30;42.98;84641.09;5091930;28;20562;-55
2023/10/10 08:36:31;;;;;;;33.03;9.05;;;;;;;-144.30;42.72;84619.22;5091952;28;20210;-56
2023/10/10 08:39:12;;;;;;;34.60;10.00;;;;;;;-144.30;42.54;84589.41;5091936;28;20199;-55
2023/10/10 08:41:39;;;;;;;27.40;9.90;;;;;;;-144.30;42.34;84561.59;5091988;28;20207;-56
2023/10/10 08:44:09;;;;;;;26.88;8.27;;;;;;;-144.30;41.97;84521.84;5091865;28;20252;-56
2023/10/10 08:46:46;;;;;;;28.75;8.23;;;;;;;-144.30;42.01;84452.28;5092012;28;20223;-55
2023/10/10 08:49:13;;;;;;;31.90;7.53;;;;;;;-144.30;41.73;84362.84;5091833;28;20222;-55
2023/10/10 08:51:41;;;;;;;28.73;7.57;;;;;;;-144.30;41.40;84521.84;5092056;28;20226;-55
2023/10/10 08:54:10;;;;;;;19.77;6.93;;;;;;;-144.30;41.13;84199.91;5091922;28;20293;-55
2023/10/10 08:56:39;;;;;;;14.93;5.60;;;;;;;-144.30;41.34;84241.63;5091691;28;20195;-56
2023/10/10 08:59:10;;;;;;;7.78;4.30;;;;;;;-144.30;40.99;84259.50;5091283;28;20191;-54
2023/10/10 09:01:38;;;;;;;7.78;4.88;;;;;;;-144.30;40.56;84255.53;5091834;28;20255;-55
2023/10/10 09:04:12;;;;;;;7.25;4.38;;;;;;;-144.30;40.58;84243.63;5091327;28;20231;-55
2023/10/10 09:06:44;;;;;;;8.30;4.30;;;;;;;-144.30;40.20;84191.94;5091226;28;20748;-56
2023/10/10 09:11:56;;;;;;;8.73;4.88;;;;;;;-144.30;39.69;84138.28;5091212;28;20207;-55
2023/10/10 09:14:37;;;;;;;13.05;7.10;;;;;;;-144.30;39.53;84086.63;5091256;28;20303;-57
2023/10/10 09:17:06;;;;;;;14.48;4.72;;;;;;;-144.30;39.41;84104.50;5091052;28;20195;-56
2023/10/10 09:19:33;;;;;;;9.52;3.92;;;;;;;-144.30;39.32;84068.75;5090425;28;20231;-57
2023/10/10 09:22:02;;;;;;;9.32;5.90;;;;;;;-144.30;39.31;84080.66;5091000;28;20213;-57
2023/10/10 09:24:38;;;;;;;8.48;3.72;;;;;;;-144.30;39.47;84096.56;5091278;28;20577;-55
2023/10/10 09:27:21;;;;;;;12.77;6.63;;;;;;;-144.30;39.51;84044.91;5091152;28;20660;-56
2023/10/10 09:29:54;;;;;;;6.60;4.60;;;;;;;-144.30;39.14;84060.78;5091424;28;20652;-56
2023/10/10 09:32:28;;;;;;;14.80;4.13;;;;;;;-144.30;39.02;84044.91;5090835;28;20203;-57
2023/10/10 09:34:57;;;;;;;9.13;3.60;;;;;;;-144.30;38.92;84015.09;5091127;28;20238;-60
2023/10/10 09:37:35;;;;;;;31.98;9.82;;;;;;;-144.30;38.74;84011.13;5090871;28;20617;-59
2023/10/10 09:40:06;;;;;;;13.45;4.57;;;;;;;-144.30;38.79;84074.72;5090940;28;20203;-59
2023/10/10 09:42:53;;;;;;;9.50;6.32;;;;;;;-144.30;38.81;84062.78;5090778;28;20206;-60
2023/10/10 09:45:51;;;;;;;5.90;3.03;;;;;;;-144.30;39.22;84132.34;5090853;28;20286;-59
2023/10/10 09:48:28;;;;;;;8.38;4.72;;;;;;;-144.30;39.46;84118.41;5090492;28;20223;-60
2023/10/10 09:51:15;;;;;;;6.85;4.20;;;;;;;-144.30;39.12;84082.66;5090585;28;20203;-60
2023/10/10 09:53:46;;;;;;;6.25;3.75;;;;;;;-144.30;39.12;84054.84;5090952;28;20659;-60
2023/10/10 09:56:15;;;;;;;11.52;6.25;;;;;;;-144.30;39.09;84029.00;5090869;28;20195;-60
2023/10/10 09:58:44;;;;;;;6.35;4.70;;;;;;;-144.30;38.91;84029.00;5090690;28;20685;-59
2023/10/10 10:01:22;;;;;;;4.65;2.75;;;;;;;-144.30;38.93;84056.81;5090540;28;20582;-60
2023/10/10 10:04:02;;;;;;;3.92;2.60;;;;;;;-144.30;39.59;84136.31;5090080;28;20291;-60
2023/10/10 10:07:12;;;;;;;8.75;2.78;;;;;;;-144.30;39.87;84186.00;5090800;28;20687;-59
2023/10/10 10:10:16;;;;;;;6.70;2.90;;;;;;;-144.30;40.20;84144.25;5083038;28;20203;-59
2023/10/10 10:13:13;;;;;;;3.30;3.03;;;;;;;-144.30;40.17;84174.06;5090464;28;20286;-56
2023/10/10 10:15:53;;;;;;;8.70;2.88;;;;;;;-144.30;40.39;84180.03;5090283;28;20191;-56
2023/10/10 10:18:29;;;;;;;18.45;11.10;;;;;;;-144.30;40.47;84180.03;5089870;28;20233;-56
2023/10/10 10:21:16;;;;;;;15.82;7.28;;;;;;;-144.30;40.57;84184.00;5090391;28;20190;-55
2023/10/10 10:23:46;;;;;;;10.05;9.00;;;;;;;-144.30;40.79;84197.91;5090394;28;20191;-59
2023/10/10 10:26:24;;;;;;;3.15;2.15;;;;;;;-144.30;40.79;84178.03;5090078;28;20659;-57
2023/10/10 10:28:57;;;;;;;2.85;2.50;;;;;;;-144.30;41.03;84211.81;5089891;28;20202;-57
2023/10/10 10:31:29;;;;;;;2.60;2.40;;;;;;;-144.30;41.54;84231.69;5089757;28;20200;-56
2023/10/10 10:34:23;;;;;;;6.22;2.65;;;;;;;-144.30;41.84;84245.59;5090303;28;20638;-56
2023/10/10 10:36:57;;;;;;;6.55;2.38;;;;;;;-144.30;41.50;84195.94;5090191;28;20695;-56
2023/10/10 10:39:25;;;;;;;3.70;2.75;;;;;;;-144.30;41.50;84227.72;5089976;28;20190;-58
2023/10/10 10:41:54;;;;;;;9.32;3.28;;;;;;;-144.30;41.69;84235.66;5090529;28;20236;-58
2023/10/10 10:44:44;;;;;;;7.13;3.28;;;;;;;-144.30;41.30;84239.66;5090877;28;20272;-58
2023/10/10 10:47:47;;;;;;;5.20;2.40;;;;;;;-144.30;41.20;84187.97;5090203;28;20235;-58
2023/10/10 10:50:40;;;;;;;5.80;2.50;;;;;;;-144.30;41.42;84239.66;5089995;28;20301;-59
2023/10/10 10:53:20;;;;;;;3.10;2.55;;;;;;;-144.30;41.33;84187.97;5090035;28;20200;-59
2023/10/10 10:55:59;;;;;;;8.13;4.00;;;;;;;-144.30;41.29;84269.47;5087645;28;20207;-58
2023/10/10 10:58:26;;;;;;;7.22;2.85;;;;;;;-144.30;41.31;84317.16;5087937;28;20195;-58
2023/10/10 11:01:00;;;;;;;12.65;4.15;;;;;;;-144.30;41.59;84311.19;5086622;28;20195;-58
2023/10/10 11:03:33;;;;;;;8.75;3.33;;;;;;;-144.30;41.98;84321.13;5089391;28;20663;-57
2023/10/10 11:06:06;;;;;;;9.57;2.85;;;;;;;-144.30;42.24;84299.25;5088954;28;20203;-58
2023/10/10 11:11:36;;;;;;;7.30;3.80;;;;;;;-144.30;42.30;84315.16;5027249;28;20206;-58
2023/10/10 11:14:09;;;;;;;17.30;2.72;;;;;;;-144.30;42.66;84360.88;5077701;28;20662;-58
2023/10/10 11:16:45;;;;;;;5.88;2.97;;;;;;;-144.30;42.90;84273.44;5089913;28;20199;-57
2023/10/10 11:19:25;;;;;;;10.63;4.85;;;;;;;-144.30;43.05;84346.97;5089427;28;20227;-57
2023/10/10 11:21:56;;;;;;;10.85;6.22;;;;;;;-144.30;42.92;84335.03;5089829;28;20199;-57
2023/10/10 11:24:25;;;;;;;5.78;3.03;;;;;;;-144.30;43.33;84378.75;5089691;28;20195;-57
2023/10/10 11:27:07;;;;;;;6.30;3.50;;;;;;;-144.30;43.36;84426.47;5089457;28;20207;-58
2023/10/10 11:29:41;;;;;;;3.20;2.88;;;;;;;-144.30;43.51;84444.34;5089904;28;20663;-58
2023/10/10 11:32:11;;;;;;;3.33;2.92;;;;;;;-144.30;43.75;84792.16;5089287;28;20199;-58
2023/10/10 11:34:44;;;;;;;3.40;2.72;;;;;;;-144.30;44.02;84422.47;5089621;28;20675;-58
2023/10/10 11:37:14;;;;;;;4.53;2.45;;;;;;;-144.30;43.92;84430.44;5089802;28;20199;-59
2023/10/10 11:39:49;;;;;;;7.45;3.92;;;;;;;-144.30;43.88;84398.63;5089477;28;20206;-58
2023/10/10 11:42:29;;;;;;;8.75;3.05;;;;;;;-144.30;43.89;84438.38;5089440;28;20252;-57
2023/10/10 11:45:07;;;;;;;7.63;4.35;;;;;;;-144.30;43.78;84396.66;5092813;28;20197;-59
2023/10/10 11:47:42;;;;;;;5.35;4.18;;;;;;;-144.30;43.99;84354.91;5092889;28;20249;-59
2023/10/10 11:50:11;;;;;;;4.03;3.72;;;;;;;-144.30;43.96;84422.47;5092614;28;20240;-60
2023/10/10 11:52:53;;;;;;;8.10;4.45;;;;;;;-144.30;44.06;84432.41;5093134;28;20742;-59
2023/10/10 11:55:20;;;;;;;5.63;3.50;;;;;;;-144.30;44.09;84394.66;5092814;28;20202;-59
2023/10/10 11:57:49;;;;;;;6.80;4.45;;;;;;;-144.30;44.34;84410.56;5092796;28;20643;-57
2023/10/10 12:00:22;;;;;;;6.35;4.22;;;;;;;-144.30;44.18;84410.56;5093103;28;20305;-57
2023/10/10 12:02:50;;;;;;;9.30;4.47;;;;;;;-144.30;44.01;84404.59;5092882;28;20202;-56
2023/10/10 12:08:05;;;;;;;10.73;4.07;;;;;;;-144.30;43.84;84392.66;5089419;28;20213;-56
2023/10/10 12:10:47;;;;;;;7.22;4.50;;;;;;;-144.30;43.76;84376.78;5092184;28;20206;-56
2023/10/10 12:13:20;;;;;;;5.93;3.85;;;;;;;-144.30;43.94;84386.72;5092348;28;20206;-60
2023/10/10 12:15:47;;;;;;;10.13;3.65;;;;;;;-144.30;44.01;84362.84;5092327;28;20260;-57
2023/10/10 12:18:14;;;;;;;11.52;3.90;;;;;;;-144.30;44.04;84366.84;5091657;28;20586;-56
2023/10/10 12:20:44;;;;;;;11.00;3.95;;;;;;;-144.30;44.03;84362.84;5092008;28;20667;-56
2023/10/10 12:23:12;;;;;;;7.60;4.40;;;;;;;-144.30;44.13;84358.88;5091599;28;20203;-56
2023/10/10 12:25:41;;;;;;;3.75;2.90;;;;;;;-144.30;44.03;84342.97;5092438;28;20696;-57
2023/10/10 12:28:09;;;;;;;7.70;3.08;;;;;;;-144.30;43.99;84335.03;5092430;28;20219;-55
2023/10/10 12:30:40;;;;;;;5.07;2.45;;;;;;;-144.30;43.98;84366.84;5092249;28;20195;-56
2023/10/10 12:33:12;;;;;;;9.68;2.90;;;;;;;-144.30;43.94;84327.09;5092199;28;20192;-56
2023/10/10 12:35:42;;;;;;;4.47;3.13;;;;;;;-144.30;43.89;84325.09;5092194;28;20199;-57
2023/10/10 12:38:10;;;;;;;6.90;2.40;;;;;;;-144.30;43.65;84311.19;5091867;28;20285;-57
2023/10/10 12:40:38;;;;;;;7.88;2.97;;;;;;;-144.30;43.66;84327.09;5092199;28;20223;-56
2023/10/10 12:43:05;;;;;;;12.45;3.35;;;;;;;-144.30;43.67;84335.03;5092058;28;20218;-57
2023/10/10 12:45:34;;;;;;;5.60;2.60;;;;;;;-144.30;43.60;84325.09;5092182;28;20629;-57
2023/10/10 12:48:02;;;;;;;5.50;3.10;;;;;;;-144.30;43.63;84362.84;5091811;28;20227;-57
2023/10/10 12:50:30;;;;;;;4.40;2.58;;;;;;;-144.30;43.77;84350.94;5091536;28;20190;-56
2023/10/10 12:53:07;;;;;;;4.28;2.20;;;;;;;-144.30;43.76;84362.84;5092247;28;20807;-56
2023/10/10 12:55:35;;;;;;;13.50;3.00;;;;;;;-144.30;43.86;84382.72;5091778;28;20203;-57
2023/10/10 12:58:09;;;;;;;6.47;2.70;;;;;;;-144.30;43.66;84356.91;5091630;28;20197;-56
2023/10/10 13:00:36;;;;;;;6.10;1.85;;;;;;;-144.30;43.54;84323.13;5086605;28;20215;-56
2023/10/10 13:03:06;;;;;;;6.88;2.50;;;;;;;-144.30;43.44;84358.88;5090947;28;20200;-57
2023/10/10 13:05:33;;;;;;;6.70;1.60;;;;;;;-144.30;43.58;84360.88;5091183;28;20283;-58
2023/10/10 13:08:06;;;;;;;2.38;1.40;;;;;;;-144.30;43.60;84366.84;5090957;28;20221;-57
2023/10/10 13:10:37;;;;;;;4.68;1.65;;;;;;;-144.30;43.37;84325.09;5086041;28;20691;-58
2023/10/10 13:13:07;;;;;;;6.45;1.85;;;;;;;-144.30;43.15;84344.97;5090425;28;20199;-56
2023/10/10 13:15:49;;;;;;;6.55;2.13;;;;;;;-144.30;43.38;84390.69;5090852;28;20249;-56
2023/10/10 13:18:24;;;;;;;3.58;2.28;;;;;;;-144.30;43.49;84339.00;5090855;28;20246;-56
2023/10/10 13:20:51;;;;;;;4.32;2.13;;;;;;;-144.30;43.61;84378.75;5078942;28;20213;-55
2023/10/10 13:23:19;;;;;;;1.90;1.58;;;;;;;-144.30;43.68;84331.06;5090360;28;20595;-57
2023/10/10 13:25:48;;;;;;;7.82;2.50;;;;;;;-144.30;44.00;84398.63;5090793;28;20202;-58
2023/10/10 13:28:21;;;;;;;7.32;3.72;;;;;;;-144.30;44.25;84374.78;5090832;28;20231;-57
2023/10/10 13:30:48;;;;;;;7.80;3.00;;;;;;;-144.30;44.52;84362.84;5091066;28;20221;-56
2023/10/10 13:33:16;;;;;;;3.10;2.80;;;;;;;-144.30;44.93;84392.66;5090850;28;20195;-58
2023/10/10 13:35:44;;;;;;;6.05;2.92;;;;;;;-144.30;45.37;84406.59;5090832;28;20200;-59
2023/10/10 13:38:12;;;;;;;9.50;2.92;;;;;;;-144.30;45.60;84422.47;5090754;28;20655;-59